Terminal Aerodrome Forecast
Issued by NWS

Current Version | Previous Version | Text Only | Print | Product List | Glossary On
Versions: 1 2 3 4 5 6 7 8 9 10 11 12 13
025
FTUS42 TJSJ 302339
TAFJPS
TAF
TJPS 302339Z 3100/3124 07010KT P6SM VCTS FEW025CB SCT060
     FM311000 09010G20KT P6SM -TSRA BKN025CB BKN040
     FM311800 12014G22KT 4SM -RA OVC050
      AMD NOT SKED TIL 310300=

USA.gov is the U.S. government's official web portal to all federal, state and local government web resources and services.